createdAt,value
2023-01-20T00:03:14.115Z,3.56
2023-01-20T00:08:15.412Z,3.40
2023-01-20T00:13:16.718Z,3.22
2023-01-20T00:18:18.025Z,3.36
2023-01-20T00:23:19.338Z,3.26
2023-01-20T00:28:20.661Z,3.05
2023-01-20T00:33:21.965Z,2.86
2023-01-20T00:38:23.305Z,2.90
2023-01-20T00:43:25.068Z,2.96
2023-01-20T00:48:26.404Z,2.91
2023-01-20T00:53:27.789Z,2.87
2023-01-20T00:58:29.229Z,3.01
2023-01-20T01:03:30.602Z,3.13
2023-01-20T01:08:32.875Z,3.08
2023-01-20T01:13:34.622Z,3.01
2023-01-20T01:18:35.930Z,2.83
2023-01-20T01:23:37.319Z,2.87
2023-01-20T01:28:39.751Z,2.89
2023-01-20T01:33:41.203Z,2.78
2023-01-20T01:38:43.084Z,2.89
2023-01-20T01:44:03.747Z,2.90
2023-01-20T01:49:11.076Z,2.81
2023-01-20T01:54:16.947Z,2.70
2023-01-20T01:59:18.902Z,2.82
2023-01-20T02:04:23.175Z,2.77
2023-01-20T02:09:26.846Z,2.58
2023-01-20T02:14:34.264Z,2.26
2023-01-20T02:19:35.551Z,2.25
2023-01-20T02:25:00.127Z,2.40
2023-01-20T02:30:26.405Z,2.34
2023-01-20T02:35:36.932Z,2.42
2023-01-20T02:41:07.082Z,2.41
2023-01-20T02:46:14.226Z,2.38
2023-01-20T02:51:25.557Z,2.49
2023-01-20T02:56:29.114Z,2.48
2023-01-20T03:01:36.242Z,2.50
2023-01-20T03:06:43.782Z,2.55
2023-01-20T03:11:53.652Z,2.53
2023-01-20T03:16:55.203Z,2.50
2023-01-20T03:21:57.343Z,2.33
2023-01-20T03:26:59.424Z,2.40
2023-01-20T03:32:03.319Z,2.38
2023-01-20T03:37:05.440Z,2.40
2023-01-20T03:42:13.879Z,2.36
2023-01-20T03:47:33.409Z,2.41
2023-01-20T03:52:47.126Z,2.33
2023-01-20T03:58:04.645Z,2.40
2023-01-20T04:03:12.734Z,2.40
2023-01-20T04:08:17.481Z,2.44
2023-01-20T04:13:18.845Z,2.37
2023-01-20T04:18:23.034Z,2.31
2023-01-20T04:23:30.955Z,2.23
2023-01-20T04:28:32.488Z,2.09
2023-01-20T04:33:37.221Z,2.14
2023-01-20T04:38:38.537Z,2.10
2023-01-20T04:43:44.127Z,2.17
2023-01-20T04:48:46.252Z,2.17
2023-01-20T04:53:47.598Z,2.18
2023-01-20T04:58:49.033Z,2.30
2023-01-20T05:03:50.355Z,2.35
2023-01-20T05:08:51.952Z,2.36
2023-01-20T05:13:53.313Z,2.36
2023-01-20T05:18:54.624Z,2.44
2023-01-20T05:23:57.215Z,2.53
2023-01-20T05:28:58.590Z,2.52
2023-01-20T05:34:00.059Z,2.61
2023-01-20T05:39:01.663Z,2.65
2023-01-20T05:44:03.092Z,2.63
2023-01-20T05:49:04.445Z,2.65
2023-01-20T05:54:05.861Z,2.52
2023-01-20T05:59:07.771Z,2.56
2023-01-20T06:04:09.392Z,2.58
2023-01-20T06:09:10.969Z,2.67
2023-01-20T06:14:12.352Z,2.70
2023-01-20T06:19:13.816Z,2.71
2023-01-20T06:24:15.167Z,2.69
2023-01-20T06:29:16.617Z,2.76
2023-01-20T06:34:17.935Z,2.79
2023-01-20T06:39:19.309Z,2.81
2023-01-20T06:44:20.677Z,2.77
2023-01-20T06:49:21.982Z,2.79
2023-01-20T06:54:23.456Z,2.82
2023-01-20T06:59:24.780Z,2.69
2023-01-20T07:04:26.165Z,2.73
2023-01-20T07:09:27.524Z,2.87
2023-01-20T07:14:28.848Z,2.93
2023-01-20T07:19:30.183Z,2.98
2023-01-20T07:24:31.619Z,3.01
2023-01-20T07:29:32.962Z,3.01
2023-01-20T07:34:34.262Z,2.96
2023-01-20T07:39:36.373Z,2.93
2023-01-20T07:44:37.676Z,3.03
2023-01-20T07:49:39.008Z,3.01
2023-01-20T07:54:40.389Z,2.94
2023-01-20T07:59:41.725Z,3.01
2023-01-20T08:04:43.189Z,2.97
2023-01-20T08:09:44.590Z,3.07
2023-01-20T08:14:45.918Z,3.15
2023-01-20T08:19:47.325Z,3.11
2023-01-20T08:24:48.657Z,3.06
2023-01-20T08:29:49.978Z,3.11
2023-01-20T08:34:51.294Z,3.15
2023-01-20T08:39:52.661Z,2.86
2023-01-20T08:44:54.062Z,2.94
2023-01-20T08:49:55.443Z,3.13
2023-01-20T08:54:58.652Z,3.15
2023-01-20T09:00:00.039Z,3.24
2023-01-20T09:05:01.430Z,3.28
2023-01-20T09:10:04.347Z,3.46
2023-01-20T09:15:07.501Z,3.61
2023-01-20T09:20:09.844Z,3.65
2023-01-20T09:25:11.406Z,3.64
2023-01-20T09:30:13.053Z,3.30
2023-01-20T09:35:14.929Z,3.41
2023-01-20T09:40:42.723Z,3.35
2023-01-20T09:45:56.735Z,3.46
2023-01-20T09:51:22.120Z,3.59
2023-01-20T09:56:27.561Z,3.71
2023-01-20T10:01:52.758Z,3.69
2023-01-20T10:07:33.391Z,3.84
2023-01-20T10:12:42.660Z,4.09
2023-01-20T10:18:13.981Z,4.25
2023-01-20T10:23:21.555Z,4.13
2023-01-20T10:28:32.165Z,4.29
2023-01-20T10:33:45.313Z,4.39
2023-01-20T10:38:54.179Z,4.59
2023-01-20T10:43:57.752Z,4.66
2023-01-20T10:49:31.845Z,4.82
2023-01-20T10:54:46.184Z,4.75
2023-01-20T10:59:55.525Z,4.57
2023-01-20T11:05:23.994Z,4.43
2023-01-20T11:10:29.997Z,4.52
2023-01-20T11:15:35.419Z,4.76
2023-01-20T11:20:37.104Z,4.91
2023-01-20T11:25:39.188Z,5.11
2023-01-20T11:30:40.708Z,5.30
2023-01-20T11:36:07.246Z,5.32
2023-01-20T11:41:20.947Z,5.46
2023-01-20T11:46:29.942Z,5.47
2023-01-20T11:51:31.412Z,5.50
2023-01-20T11:56:41.448Z,5.52
2023-01-20T12:01:51.723Z,5.49
2023-01-20T12:07:03.444Z,5.49
2023-01-20T12:12:10.341Z,5.51
2023-01-20T12:17:17.356Z,5.53
2023-01-20T12:22:26.187Z,5.62
2023-01-20T12:27:28.158Z,5.60
2023-01-20T12:32:31.467Z,5.56
2023-01-20T12:37:47.083Z,5.50
2023-01-20T12:43:16.268Z,5.57
2023-01-20T12:48:49.916Z,5.40
2023-01-20T12:54:10.055Z,5.26
2023-01-20T12:59:39.606Z,5.20
2023-01-20T13:05:04.749Z,5.20
2023-01-20T13:10:25.700Z,5.25
2023-01-20T13:15:34.355Z,5.23
2023-01-20T13:20:40.497Z,5.23
2023-01-20T13:25:46.852Z,5.23
2023-01-20T13:30:54.207Z,5.28
2023-01-20T13:35:56.603Z,5.30
2023-01-20T13:41:06.113Z,5.32
2023-01-20T13:46:15.111Z,5.39
2023-01-20T13:51:19.180Z,5.48
2023-01-20T13:56:26.234Z,5.56
2023-01-20T14:01:28.472Z,5.57
2023-01-20T14:06:30.373Z,5.63
2023-01-20T14:11:31.829Z,5.63
2023-01-20T14:16:36.235Z,5.63
2023-01-20T14:21:41.706Z,5.62
2023-01-20T14:26:43.032Z,5.55
2023-01-20T14:31:46.160Z,5.58
2023-01-20T14:36:47.920Z,5.60
2023-01-20T14:41:54.868Z,5.55
2023-01-20T14:47:01.350Z,5.51
2023-01-20T14:52:04.355Z,5.43
2023-01-20T14:57:40.899Z,5.33
2023-01-20T15:03:11.022Z,5.40
2023-01-20T15:08:26.005Z,5.34
2023-01-20T15:13:29.733Z,5.31
2023-01-20T15:18:31.156Z,5.37
2023-01-20T15:23:38.838Z,5.42
2023-01-20T15:28:44.386Z,5.40
2023-01-20T15:33:45.735Z,5.39
2023-01-20T15:38:47.333Z,5.31
2023-01-20T15:43:51.102Z,5.32
2023-01-20T15:48:52.449Z,5.24
2023-01-20T15:53:53.837Z,5.21
2023-01-20T15:58:56.055Z,5.19
2023-01-20T16:03:58.417Z,5.10
2023-01-20T16:09:12.663Z,5.09
2023-01-20T16:14:14.059Z,5.08
2023-01-20T16:19:15.978Z,5.03
2023-01-20T16:24:17.297Z,5.01
2023-01-20T16:29:18.674Z,4.90
2023-01-20T16:34:20.037Z,4.88
2023-01-20T16:39:21.350Z,4.87
2023-01-20T16:44:22.659Z,4.88
2023-01-20T16:49:23.998Z,4.85
2023-01-20T16:54:25.378Z,4.85
2023-01-20T16:59:26.697Z,4.84
2023-01-20T17:04:29.358Z,4.81
2023-01-20T17:09:30.671Z,4.76
2023-01-20T17:14:32.173Z,4.69
2023-01-20T17:19:33.553Z,4.63
2023-01-20T17:24:35.020Z,4.56
2023-01-20T17:29:36.677Z,4.49
2023-01-20T17:34:37.995Z,4.50
2023-01-20T17:39:39.450Z,4.49
2023-01-20T17:44:40.769Z,4.58
2023-01-20T17:49:42.145Z,4.63
2023-01-20T17:54:43.484Z,4.64
2023-01-20T17:59:44.828Z,4.44
2023-01-20T18:04:46.234Z,4.31
2023-01-20T18:09:47.542Z,4.32
2023-01-20T18:14:48.856Z,4.31
2023-01-20T18:19:50.472Z,4.29
2023-01-20T18:24:51.901Z,4.22
2023-01-20T18:29:53.235Z,4.17
2023-01-20T18:34:54.703Z,4.15
2023-01-20T18:39:56.103Z,4.10
2023-01-20T18:44:57.425Z,4.12
2023-01-20T18:49:58.734Z,4.09
2023-01-20T18:55:00.123Z,4.02
2023-01-20T19:00:01.602Z,3.93
2023-01-20T19:05:03.053Z,3.78
2023-01-20T19:10:04.693Z,3.69
2023-01-20T19:15:06.690Z,3.62
2023-01-20T19:20:09.182Z,3.57
2023-01-20T19:25:10.844Z,3.61
2023-01-20T19:30:12.979Z,3.60
2023-01-20T19:35:14.331Z,3.58
2023-01-20T19:40:16.452Z,3.60
2023-01-20T19:45:18.521Z,3.62
2023-01-20T19:50:19.875Z,3.64
2023-01-20T19:55:21.210Z,3.66
2023-01-20T20:00:22.675Z,3.67
2023-01-20T20:05:24.012Z,3.67
2023-01-20T20:10:25.343Z,3.69
2023-01-20T20:15:26.763Z,3.70
2023-01-20T20:20:28.097Z,3.69
2023-01-20T20:25:29.461Z,3.67
2023-01-20T20:30:30.869Z,3.67
2023-01-20T20:35:35.403Z,3.71
2023-01-20T20:40:36.708Z,3.73
2023-01-20T20:45:38.157Z,3.79
2023-01-20T20:50:39.464Z,3.80
2023-01-20T20:55:41.887Z,3.81
2023-01-20T21:00:43.240Z,3.74
2023-01-20T21:05:48.847Z,3.76
2023-01-20T21:10:50.546Z,3.80
2023-01-20T21:15:56.432Z,3.82
2023-01-20T21:20:59.961Z,3.82
2023-01-20T21:26:02.967Z,3.74
2023-01-20T21:31:12.816Z,3.76
2023-01-20T21:36:14.699Z,3.81
2023-01-20T21:41:17.151Z,3.82
2023-01-20T21:46:19.077Z,3.87
2023-01-20T21:51:46.305Z,3.85
2023-01-20T21:56:48.449Z,3.82
2023-01-20T22:01:50.039Z,3.81
2023-01-20T22:06:51.382Z,3.82
2023-01-20T22:11:52.712Z,3.84
2023-01-20T22:16:54.097Z,3.89
2023-01-20T22:21:56.762Z,3.86
2023-01-20T22:26:58.242Z,3.83
2023-01-20T22:32:02.246Z,3.76
2023-01-20T22:37:03.602Z,3.81
2023-01-20T22:42:05.101Z,3.77
2023-01-20T22:47:09.666Z,3.70
2023-01-20T22:52:10.983Z,3.69
2023-01-20T22:57:13.022Z,3.63
2023-01-20T23:02:14.522Z,3.62
2023-01-20T23:07:15.850Z,3.67
2023-01-20T23:12:17.224Z,3.69
2023-01-20T23:17:18.541Z,3.66
2023-01-20T23:22:20.413Z,3.67
2023-01-20T23:27:21.796Z,3.69
2023-01-20T23:32:23.844Z,3.66
2023-01-20T23:37:25.178Z,3.66
2023-01-20T23:42:26.535Z,3.63
2023-01-20T23:47:27.887Z,3.63
2023-01-20T23:52:29.302Z,3.62
2023-01-20T23:57:30.636Z,3.62
